Shapleigh, Maine
Current Conditions -  °F | °C
As of 5:15 AM on Sunday 25 Jan 2015 (Local Time) from KSFM Reporting Station
Overcast Overcast  
Wind Chill: 24°   Ceiling: 7500
Heat Index: 30°   Visibility: 10mi
Dew Point: 25°   Wind: 6mph
Humidity: 80%   Direction: 260°W
Pressure: 29.37"   Gusts: NA
Location:  43.54°N, 70.85°W
Report Text: KSFM 251015Z AUTO 26005KT 10SM FEW037 OVC075 M01/M04 A2937 RMK AO1
Loading
Personal Weather Stations






























Interactive Weather Map New forecast layout! Learn more

10-Day Weather Forecast

Advertisements
Track Severe Weather on mobile